createdAt,value
2018-04-08T00:00:25.855Z,4.90
2018-04-08T00:02:53.310Z,5.70
2018-04-08T00:05:20.749Z,4.40
2018-04-08T00:07:48.201Z,3.43
2018-04-08T00:10:15.646Z,4.20
2018-04-08T00:12:43.088Z,4.73
2018-04-08T00:18:40.636Z,4.13
2018-04-08T00:21:08.378Z,4.73
2018-04-08T00:23:38.221Z,5.17
2018-04-08T00:26:05.674Z,3.67
2018-04-08T00:28:33.115Z,5.37
2018-04-08T00:31:00.564Z,4.93
2018-04-08T00:33:29.840Z,4.30
2018-04-08T00:35:59.706Z,4.63
2018-04-08T00:38:27.152Z,4.07
2018-04-08T00:40:54.593Z,3.63
2018-04-08T00:43:22.066Z,4.57
2018-04-08T00:45:49.530Z,2.93
2018-04-08T00:48:16.983Z,4.10
2018-04-08T00:50:44.494Z,5.37
2018-04-08T00:53:11.930Z,4.70
2018-04-08T00:55:39.376Z,3.60
2018-04-08T00:58:06.817Z,3.70
2018-04-08T01:00:34.272Z,4.80
2018-04-08T01:03:01.719Z,4.37
2018-04-08T01:05:29.162Z,4.43
2018-04-08T01:07:56.629Z,3.80
2018-04-08T01:10:24.068Z,3.80
2018-04-08T01:12:51.521Z,4.13
2018-04-08T01:15:19.297Z,3.40
2018-04-08T01:17:46.732Z,4.10
2018-04-08T01:20:14.203Z,3.47
2018-04-08T01:22:41.663Z,2.53
2018-04-08T01:25:09.350Z,4.70
2018-04-08T01:27:36.788Z,3.97
2018-04-08T01:30:04.230Z,4.33
2018-04-08T01:32:31.862Z,3.63
2018-04-08T01:34:59.306Z,4.90
2018-04-08T01:37:26.752Z,4.30
2018-04-08T01:39:55.217Z,4.37
2018-04-08T01:42:22.679Z,3.97
2018-04-08T01:44:50.151Z,4.10
2018-04-08T01:47:17.614Z,3.57
2018-04-08T01:49:45.069Z,4.47
2018-04-08T01:52:12.510Z,3.00
2018-04-08T01:54:40.002Z,3.57
2018-04-08T01:57:07.551Z,5.37
2018-04-08T01:59:34.985Z,3.80
2018-04-08T02:02:02.462Z,4.30
2018-04-08T02:04:29.921Z,3.90
2018-04-08T02:06:57.343Z,6.30
2018-04-08T02:09:24.796Z,4.60
2018-04-08T02:11:52.249Z,4.57
2018-04-08T02:14:19.697Z,3.33
2018-04-08T02:16:47.136Z,4.27
2018-04-08T02:19:14.583Z,6.47
2018-04-08T02:21:42.051Z,3.40
2018-04-08T02:24:09.501Z,4.83
2018-04-08T02:26:36.965Z,2.73
2018-04-08T02:29:04.451Z,3.67
2018-04-08T02:31:31.948Z,4.23
2018-04-08T02:33:59.428Z,2.97
2018-04-08T02:36:26.866Z,3.70
2018-04-08T02:38:54.337Z,4.63
2018-04-08T02:41:21.780Z,4.47
2018-04-08T02:43:49.223Z,4.57
2018-04-08T02:46:16.667Z,5.10
2018-04-08T02:48:44.115Z,5.43
2018-04-08T02:51:11.563Z,4.60
2018-04-08T02:53:38.993Z,5.17
2018-04-08T02:56:06.439Z,5.50
2018-04-08T02:58:33.978Z,5.70
2018-04-08T03:01:01.413Z,5.03
2018-04-08T03:03:29.551Z,4.57
2018-04-08T03:08:29.446Z,4.90
2018-04-08T03:10:56.900Z,5.30
2018-04-08T03:13:24.347Z,4.57
2018-04-08T03:15:51.798Z,4.90
2018-04-08T03:18:19.400Z,4.30
2018-04-08T03:20:47.104Z,3.67
2018-04-08T03:23:14.550Z,5.77
2018-04-08T03:25:42.007Z,3.70
2018-04-08T03:28:09.452Z,3.97
2018-04-08T03:30:36.894Z,5.37
2018-04-08T03:33:04.375Z,3.60
2018-04-08T03:35:31.816Z,3.47
2018-04-08T03:37:59.245Z,4.57
2018-04-08T03:40:26.704Z,3.80
2018-04-08T03:42:54.160Z,4.53
2018-04-08T03:45:21.724Z,4.20
2018-04-08T03:47:49.165Z,3.83
2018-04-08T03:50:16.613Z,5.20
2018-04-08T03:52:44.061Z,4.03
2018-04-08T03:55:11.506Z,4.20
2018-04-08T03:57:38.953Z,5.90
2018-04-08T04:00:06.566Z,4.60
2018-04-08T04:02:34.023Z,3.63
2018-04-08T04:05:01.473Z,3.53
2018-04-08T04:07:28.932Z,3.07
2018-04-08T04:09:56.394Z,4.30
2018-04-08T04:12:23.827Z,4.90
2018-04-08T04:14:51.258Z,3.80
2018-04-08T04:17:18.710Z,3.87
2018-04-08T04:19:57.969Z,3.90
2018-04-08T04:22:37.153Z,5.80
2018-04-08T04:25:11.114Z,4.37
2018-04-08T04:27:38.564Z,3.80
2018-04-08T04:30:06.000Z,3.83
2018-04-08T04:32:33.741Z,4.63
2018-04-08T04:35:01.174Z,4.30
2018-04-08T04:37:28.640Z,5.13
2018-04-08T04:39:56.098Z,3.90
2018-04-08T04:42:23.553Z,4.70
2018-04-08T04:44:51.007Z,4.50
2018-04-08T04:47:18.459Z,4.77
2018-04-08T04:49:45.896Z,4.00
2018-04-08T04:52:13.348Z,4.60
2018-04-08T04:54:40.791Z,4.20
2018-04-08T04:57:08.245Z,4.17
2018-04-08T04:59:35.689Z,5.50
2018-04-08T05:02:03.166Z,4.30
2018-04-08T05:04:30.633Z,4.40
2018-04-08T05:06:58.078Z,3.80
2018-04-08T05:09:25.540Z,3.47
2018-04-08T05:11:52.989Z,4.13
2018-04-08T05:14:20.420Z,4.17
2018-04-08T05:16:47.870Z,5.23
2018-04-08T05:19:15.315Z,3.70
2018-04-08T05:21:42.768Z,4.87
2018-04-08T05:24:10.204Z,5.43
2018-04-08T05:26:37.647Z,4.37
2018-04-08T05:29:05.093Z,3.97
2018-04-08T05:31:32.541Z,4.20
2018-04-08T05:34:00.011Z,3.47
2018-04-08T05:36:27.452Z,4.40
2018-04-08T05:38:55.105Z,4.43
2018-04-08T05:41:22.611Z,4.57
2018-04-08T05:43:50.049Z,3.67
2018-04-08T05:46:17.507Z,4.87
2018-04-08T05:48:45.093Z,4.07
2018-04-08T05:51:12.529Z,3.70
2018-04-08T05:53:40.000Z,4.47
2018-04-08T05:56:07.448Z,5.30
2018-04-08T05:58:34.896Z,4.30
2018-04-08T06:01:02.337Z,4.13
2018-04-08T06:03:30.401Z,4.67
2018-04-08T06:05:57.876Z,4.93
2018-04-08T06:08:25.331Z,4.10
2018-04-08T06:10:52.786Z,3.47
2018-04-08T06:13:20.230Z,3.80
2018-04-08T06:15:47.667Z,3.23
2018-04-08T06:18:15.129Z,4.47
2018-04-08T06:20:42.576Z,4.20
2018-04-08T06:23:10.047Z,2.90
2018-04-08T06:25:37.489Z,3.50
2018-04-08T06:28:04.930Z,3.50
2018-04-08T06:30:32.382Z,3.63
2018-04-08T06:32:59.818Z,4.33
2018-04-08T06:35:28.032Z,5.07
2018-04-08T06:37:55.473Z,4.07
2018-04-08T06:40:22.908Z,5.40
2018-04-08T06:42:50.365Z,4.17
2018-04-08T06:45:17.801Z,3.60
2018-04-08T06:47:45.245Z,3.50
2018-04-08T06:50:12.678Z,4.30
2018-04-08T06:52:40.129Z,5.20
2018-04-08T06:55:07.573Z,3.30
2018-04-08T06:57:35.778Z,4.00
2018-04-08T07:00:03.233Z,4.67
2018-04-08T07:02:30.682Z,4.03
2018-04-08T07:04:58.105Z,3.90
2018-04-08T07:07:25.552Z,4.30
2018-04-08T07:09:52.992Z,3.53
2018-04-08T07:12:20.447Z,3.57
2018-04-08T07:14:47.893Z,3.27
2018-04-08T07:17:15.328Z,3.30
2018-04-08T07:19:43.066Z,4.47
2018-04-08T07:22:10.506Z,3.73
2018-04-08T07:24:37.969Z,4.70
2018-04-08T07:27:05.405Z,3.73
2018-04-08T07:29:32.846Z,3.77
2018-04-08T07:32:01.063Z,6.00
2018-04-08T07:34:28.501Z,3.70
2018-04-08T07:36:55.955Z,4.40
2018-04-08T07:39:24.164Z,3.37
2018-04-08T07:41:51.745Z,4.43
2018-04-08T07:44:19.214Z,4.60
2018-04-08T07:46:46.644Z,3.87
2018-04-08T07:49:14.102Z,4.67
2018-04-08T07:51:41.544Z,4.67
2018-04-08T07:54:09.753Z,5.00
2018-04-08T07:56:37.212Z,4.40
2018-04-08T07:59:04.654Z,4.23
2018-04-08T08:01:32.523Z,4.93
2018-04-08T08:03:59.929Z,3.90
2018-04-08T08:06:27.604Z,4.57
2018-04-08T08:08:55.075Z,4.97
2018-04-08T08:11:22.933Z,3.97
2018-04-08T08:13:50.388Z,5.00
2018-04-08T08:16:17.812Z,4.40
2018-04-08T08:18:45.266Z,5.17
2018-04-08T08:21:12.905Z,4.83
2018-04-08T08:23:40.362Z,4.90
2018-04-08T08:26:07.797Z,5.60
2018-04-08T08:28:35.240Z,5.30
2018-04-08T08:31:02.751Z,4.43
2018-04-08T08:33:33.226Z,5.93
2018-04-08T08:36:00.660Z,5.00
2018-04-08T08:38:28.117Z,5.50
2018-04-08T08:40:55.558Z,4.20
2018-04-08T08:43:22.997Z,4.50
2018-04-08T08:45:50.549Z,5.17
2018-04-08T08:48:17.992Z,4.67
2018-04-08T08:50:45.469Z,5.40
2018-04-08T08:53:12.900Z,5.53
2018-04-08T08:55:40.375Z,5.33
2018-04-08T08:58:07.825Z,6.87
2018-04-08T09:00:35.300Z,5.83
2018-04-08T09:03:02.760Z,5.27
2018-04-08T09:05:30.200Z,5.90
2018-04-08T09:07:58.008Z,5.07
2018-04-08T09:10:25.658Z,5.30
2018-04-08T09:12:53.099Z,5.17
2018-04-08T09:15:20.586Z,5.03
2018-04-08T09:17:48.029Z,4.13
2018-04-08T09:20:19.358Z,5.10
2018-04-08T09:22:52.361Z,4.93
2018-04-08T09:25:26.276Z,5.63
2018-04-08T09:27:54.388Z,6.07
2018-04-08T09:30:21.936Z,4.80
2018-04-08T09:32:49.372Z,5.10
2018-04-08T09:35:16.810Z,5.70
2018-04-08T09:37:44.250Z,5.83
2018-04-08T09:40:11.706Z,7.03
2018-04-08T09:42:39.154Z,6.60
2018-04-08T09:45:06.600Z,5.60
2018-04-08T09:47:34.034Z,4.93
2018-04-08T09:50:02.238Z,5.40
2018-04-08T09:52:29.885Z,5.20
2018-04-08T09:54:57.345Z,5.47
2018-04-08T09:57:26.614Z,7.47
2018-04-08T09:59:54.046Z,5.43
2018-04-08T10:02:27.073Z,6.80
2018-04-08T10:04:56.022Z,7.67
2018-04-08T10:07:23.666Z,6.10
2018-04-08T10:09:51.118Z,6.63
2018-04-08T10:12:19.322Z,7.10
2018-04-08T10:14:46.783Z,6.60
2018-04-08T10:17:14.238Z,6.07
2018-04-08T10:19:41.842Z,6.20
2018-04-08T10:22:09.285Z,5.37
2018-04-08T10:24:36.729Z,7.30
2018-04-08T10:27:04.185Z,7.20
2018-04-08T10:29:31.626Z,6.70
2018-04-08T10:31:59.065Z,8.47
2018-04-08T10:34:26.511Z,7.27
2018-04-08T10:36:54.065Z,8.13
2018-04-08T10:39:21.526Z,7.30
2018-04-08T10:41:48.990Z,7.83
2018-04-08T10:44:16.429Z,6.50
2018-04-08T10:46:43.894Z,7.00
2018-04-08T10:49:11.771Z,7.70
2018-04-08T10:51:39.264Z,5.80
2018-04-08T10:54:06.656Z,7.00
2018-04-08T10:56:34.099Z,8.20
2018-04-08T10:59:01.541Z,6.43
2018-04-08T11:01:30.406Z,8.30
2018-04-08T11:03:57.866Z,8.53
2018-04-08T11:06:25.310Z,8.37
2018-04-08T11:08:52.748Z,8.13
2018-04-08T11:11:20.206Z,7.90
2018-04-08T11:13:47.825Z,7.00
2018-04-08T11:16:15.313Z,7.90
2018-04-08T11:18:44.256Z,7.93
2018-04-08T11:21:11.699Z,7.10
2018-04-08T11:23:39.150Z,7.67
2018-04-08T11:26:13.539Z,6.70
2018-04-08T11:28:40.991Z,7.73
2018-04-08T11:31:08.649Z,8.67
2018-04-08T11:33:36.100Z,6.93
2018-04-08T11:36:03.559Z,7.50
2018-04-08T11:38:33.960Z,7.23
2018-04-08T11:41:01.463Z,7.53
2018-04-08T11:43:28.941Z,7.70
2018-04-08T11:45:56.400Z,7.80
2018-04-08T11:48:23.870Z,7.70
2018-04-08T11:50:51.319Z,6.30
2018-04-08T11:53:18.762Z,7.93
2018-04-08T11:55:46.206Z,7.93
2018-04-08T11:58:13.648Z,7.30
2018-04-08T12:00:41.267Z,6.93
2018-04-08T12:03:08.693Z,6.80
2018-04-08T12:05:36.141Z,5.77
2018-04-08T12:08:03.585Z,6.93
2018-04-08T12:10:31.015Z,7.23
2018-04-08T12:12:58.485Z,6.80
2018-04-08T12:15:25.933Z,7.83
2018-04-08T12:17:53.383Z,7.23
2018-04-08T12:20:20.823Z,8.07
2018-04-08T12:22:48.262Z,5.40
2018-04-08T12:25:15.714Z,7.90
2018-04-08T12:27:43.156Z,6.50
2018-04-08T12:30:10.597Z,7.17
2018-04-08T12:32:38.135Z,5.77
2018-04-08T12:35:05.565Z,6.43
2018-04-08T12:37:33.098Z,6.07
2018-04-08T12:40:00.628Z,6.60
2018-04-08T12:42:28.093Z,6.33
2018-04-08T12:44:55.538Z,7.17
2018-04-08T12:47:22.973Z,6.53
2018-04-08T12:49:50.441Z,7.23
2018-04-08T12:52:17.877Z,5.93
2018-04-08T12:54:45.337Z,5.97
2018-04-08T12:57:12.774Z,5.70
2018-04-08T12:59:40.223Z,6.13
2018-04-08T13:02:07.681Z,5.00
2018-04-08T13:04:35.113Z,5.63
2018-04-08T13:07:02.691Z,4.80
2018-04-08T13:09:30.136Z,6.27
2018-04-08T13:11:57.586Z,6.93
2018-04-08T13:14:25.233Z,4.80
2018-04-08T13:16:52.660Z,5.67
2018-04-08T13:19:20.104Z,5.60
2018-04-08T13:21:47.601Z,5.53
2018-04-08T13:24:15.036Z,4.90
2018-04-08T13:26:42.811Z,3.83
2018-04-08T13:29:10.952Z,3.83
2018-04-08T13:31:38.343Z,3.77
2018-04-08T13:34:06.105Z,4.80
2018-04-08T13:36:33.542Z,4.23
2018-04-08T13:39:01.001Z,3.00
2018-04-08T13:41:28.500Z,3.73
2018-04-08T13:43:55.970Z,4.23
2018-04-08T13:46:23.420Z,3.20
2018-04-08T13:48:50.850Z,2.50
2018-04-08T13:51:18.343Z,3.10
2018-04-08T13:53:45.805Z,3.60
2018-04-08T13:56:14.117Z,2.87
2018-04-08T13:58:41.529Z,3.30
2018-04-08T14:01:09.301Z,3.43
2018-04-08T14:03:37.513Z,4.27
2018-04-08T14:06:04.970Z,4.27
2018-04-08T14:08:40.593Z,2.73
2018-04-08T14:11:08.014Z,3.60
2018-04-08T14:13:35.522Z,4.23
2018-04-08T14:16:02.968Z,4.67
2018-04-08T14:18:32.563Z,2.90
2018-04-08T14:21:01.401Z,2.77
2018-04-08T14:23:28.839Z,3.07
2018-04-08T14:25:56.277Z,4.07
2018-04-08T14:28:23.740Z,3.80
2018-04-08T14:30:51.183Z,3.30
2018-04-08T14:33:18.700Z,3.00
2018-04-08T14:35:46.132Z,3.83
2018-04-08T14:38:13.577Z,2.97
2018-04-08T14:40:41.031Z,2.67
2018-04-08T14:43:09.225Z,2.93
2018-04-08T14:45:36.674Z,2.67
2018-04-08T14:48:04.119Z,3.23
2018-04-08T14:50:31.544Z,2.73
2018-04-08T14:52:58.993Z,1.83
2018-04-08T14:55:26.604Z,2.50
2018-04-08T14:57:54.060Z,2.60
2018-04-08T15:00:21.493Z,2.80
2018-04-08T15:02:48.934Z,2.97
2018-04-08T15:05:16.389Z,2.20
2018-04-08T15:07:43.828Z,1.93
2018-04-08T15:10:12.046Z,2.67
2018-04-08T15:12:39.553Z,2.10
2018-04-08T15:15:07.004Z,1.97
2018-04-08T15:17:34.465Z,3.00
2018-04-08T15:20:02.098Z,2.60
2018-04-08T15:22:29.551Z,1.80
2018-04-08T15:24:56.997Z,2.47
2018-04-08T15:27:24.576Z,1.90
2018-04-08T15:29:52.024Z,2.20
2018-04-08T15:32:19.481Z,1.70
2018-04-08T15:34:46.980Z,2.00
2018-04-08T15:37:14.423Z,2.63
2018-04-08T15:39:41.956Z,2.70
2018-04-08T15:42:09.467Z,2.73
2018-04-08T15:44:36.893Z,2.50
2018-04-08T15:47:04.347Z,2.20
2018-04-08T15:49:31.785Z,2.40
2018-04-08T15:51:59.230Z,2.70
2018-04-08T15:54:26.686Z,1.80
2018-04-08T15:56:54.141Z,2.50
2018-04-08T15:59:21.593Z,2.63
2018-04-08T16:01:49.039Z,2.70
2018-04-08T16:04:16.780Z,2.07
2018-04-08T16:06:45.209Z,1.77
2018-04-08T16:09:14.016Z,2.57
2018-04-08T16:11:41.773Z,2.20
2018-04-08T16:14:09.440Z,2.03
2018-04-08T16:16:36.885Z,2.47
2018-04-08T16:19:04.330Z,2.10
2018-04-08T16:21:32.028Z,2.50
2018-04-08T16:23:59.482Z,2.00
2018-04-08T16:26:27.521Z,2.17
2018-04-08T16:28:55.035Z,2.13
2018-04-08T16:31:22.573Z,2.30
2018-04-08T16:33:50.014Z,2.33
2018-04-08T16:36:17.459Z,3.20
2018-04-08T16:38:44.898Z,3.20
2018-04-08T16:41:12.620Z,2.50
2018-04-08T16:43:40.060Z,2.30
2018-04-08T16:46:07.497Z,2.80
2018-04-08T16:48:37.752Z,2.70
2018-04-08T16:51:06.737Z,2.10
2018-04-08T16:53:34.550Z,2.00
2018-04-08T16:56:02.010Z,2.47
2018-04-08T16:58:29.455Z,2.47
2018-04-08T17:00:56.901Z,2.90
2018-04-08T17:03:24.408Z,2.27
2018-04-08T17:05:51.968Z,2.90
2018-04-08T17:08:19.436Z,3.53
2018-04-08T17:10:46.864Z,2.97
2018-04-08T17:13:14.316Z,3.13
2018-04-08T17:15:41.755Z,2.63
2018-04-08T17:18:09.192Z,2.80
2018-04-08T17:20:37.417Z,2.63
2018-04-08T17:23:04.857Z,3.10
2018-04-08T17:25:33.072Z,2.63
2018-04-08T17:28:00.508Z,2.37
2018-04-08T17:30:28.179Z,2.87
2018-04-08T17:32:55.641Z,3.27
2018-04-08T17:35:23.086Z,3.07
2018-04-08T17:37:50.701Z,2.40
2018-04-08T17:40:18.136Z,2.70
2018-04-08T17:42:45.813Z,2.30
2018-04-08T17:45:13.266Z,2.57
2018-04-08T17:47:40.738Z,4.37
2018-04-08T17:50:08.199Z,2.30
2018-04-08T17:52:35.659Z,2.50
2018-04-08T17:55:03.090Z,2.57
2018-04-08T17:57:30.600Z,2.77
2018-04-08T17:59:58.057Z,2.80
2018-04-08T18:02:25.506Z,3.10
2018-04-08T18:04:52.949Z,3.30
2018-04-08T18:07:20.729Z,3.53
2018-04-08T18:09:48.206Z,3.10
2018-04-08T18:12:15.651Z,3.83
2018-04-08T18:14:43.101Z,2.80
2018-04-08T18:17:10.540Z,2.87
2018-04-08T18:19:38.044Z,3.37
2018-04-08T18:22:05.500Z,2.13
2018-04-08T18:24:32.938Z,2.90
2018-04-08T18:27:00.385Z,3.20
2018-04-08T18:29:28.589Z,3.00
2018-04-08T18:31:56.089Z,3.13
2018-04-08T18:34:23.546Z,2.90
2018-04-08T18:36:50.985Z,2.63
2018-04-08T18:39:18.431Z,3.47
2018-04-08T18:41:46.146Z,3.20
2018-04-08T18:44:13.689Z,4.63
2018-04-08T18:46:41.134Z,3.93
2018-04-08T18:49:08.630Z,3.70
2018-04-08T18:51:36.088Z,3.80
2018-04-08T18:54:03.546Z,3.83
2018-04-08T18:56:30.984Z,3.03
2018-04-08T18:58:58.441Z,2.50
2018-04-08T19:01:25.906Z,3.03
2018-04-08T19:03:53.421Z,2.63
2018-04-08T19:06:20.865Z,2.77
2018-04-08T19:08:48.321Z,3.43
2018-04-08T19:11:16.076Z,3.07
2018-04-08T19:13:43.517Z,2.50
2018-04-08T19:16:11.046Z,2.43
2018-04-08T19:18:38.482Z,2.00
2018-04-08T19:21:09.219Z,2.80
2018-04-08T19:23:36.870Z,2.50
2018-04-08T19:26:04.328Z,2.90
2018-04-08T19:28:32.025Z,2.27
2018-04-08T19:30:59.466Z,3.27
2018-04-08T19:33:29.357Z,2.90
2018-04-08T19:35:56.813Z,2.80
2018-04-08T19:38:24.256Z,1.93
2018-04-08T19:40:51.713Z,2.33
2018-04-08T19:43:20.243Z,3.23
2018-04-08T19:45:47.689Z,1.90
2018-04-08T19:48:15.130Z,2.70
2018-04-08T19:50:42.561Z,2.73
2018-04-08T19:53:10.394Z,2.77
2018-04-08T19:55:37.887Z,3.07
2018-04-08T19:58:05.321Z,2.67
2018-04-08T20:00:32.770Z,2.80
2018-04-08T20:03:00.237Z,3.03
2018-04-08T20:05:27.810Z,2.97
2018-04-08T20:07:55.253Z,4.23
2018-04-08T20:10:22.702Z,3.00
2018-04-08T20:12:50.397Z,2.93
2018-04-08T20:15:17.837Z,2.80
2018-04-08T20:17:45.297Z,3.43
2018-04-08T20:20:12.721Z,2.77
2018-04-08T20:22:40.350Z,2.60
2018-04-08T20:25:08.564Z,2.90
2018-04-08T20:27:36.765Z,3.17
2018-04-08T20:30:04.226Z,3.13
2018-04-08T20:32:32.061Z,2.10
2018-04-08T20:34:59.709Z,3.20
2018-04-08T20:37:27.153Z,2.87
2018-04-08T20:39:54.601Z,3.43
2018-04-08T20:42:22.046Z,3.27
2018-04-08T20:44:49.767Z,3.37
2018-04-08T20:47:17.222Z,2.87
2018-04-08T20:49:44.965Z,2.63
2018-04-08T20:52:12.750Z,2.77
2018-04-08T20:54:40.212Z,2.80
2018-04-08T20:57:07.750Z,2.87
2018-04-08T20:59:35.206Z,3.07
2018-04-08T21:02:02.901Z,2.70
2018-04-08T21:04:30.341Z,3.50
2018-04-08T21:06:57.842Z,3.87
2018-04-08T21:09:25.382Z,5.13
2018-04-08T21:11:52.789Z,3.60
2018-04-08T21:14:20.400Z,4.57
2018-04-08T21:16:47.845Z,4.57
2018-04-08T21:19:15.298Z,7.80
2018-04-08T21:21:42.733Z,5.93
2018-04-08T21:24:10.177Z,5.40
2018-04-08T21:26:37.629Z,3.43
2018-04-08T21:29:05.072Z,10.73
2018-04-08T21:31:32.516Z,6.30
2018-04-08T21:33:59.976Z,16.90
2018-04-08T21:36:27.422Z,25.07
2018-04-08T21:38:55.033Z,11.90
2018-04-08T21:41:22.472Z,7.40
2018-04-08T21:43:50.022Z,8.70
2018-04-08T21:46:17.488Z,4.97
2018-04-08T21:48:44.936Z,4.63
2018-04-08T21:51:12.401Z,5.73
2018-04-08T21:53:40.006Z,4.57
2018-04-08T21:56:07.477Z,5.37
2018-04-08T21:58:34.929Z,4.37
2018-04-08T22:01:02.382Z,4.13
2018-04-08T22:03:37.250Z,4.50
2018-04-08T22:06:04.688Z,5.37
2018-04-08T22:08:32.128Z,5.30
2018-04-08T22:10:59.585Z,4.80
2018-04-08T22:13:27.161Z,4.60
2018-04-08T22:15:54.617Z,3.70
2018-04-08T22:18:22.064Z,4.77
2018-04-08T22:20:49.501Z,3.70
2018-04-08T22:23:16.953Z,3.87
2018-04-08T22:25:44.386Z,4.43
2018-04-08T22:28:11.837Z,4.87
2018-04-08T22:30:39.285Z,4.30
2018-04-08T22:33:06.730Z,3.50
2018-04-08T22:35:34.172Z,4.50
2018-04-08T22:38:01.618Z,4.50
2018-04-08T22:40:29.838Z,4.10
2018-04-08T22:42:57.288Z,4.90
2018-04-08T22:45:24.711Z,5.00
2018-04-08T22:47:52.458Z,4.40
2018-04-08T22:50:19.889Z,3.63
2018-04-08T22:52:47.346Z,3.47
2018-04-08T22:55:14.798Z,3.87
2018-04-08T22:57:42.229Z,3.97
2018-04-08T23:00:09.675Z,3.50
2018-04-08T23:02:37.117Z,3.80
2018-04-08T23:05:05.321Z,4.10
2018-04-08T23:07:33.524Z,5.60
2018-04-08T23:10:00.969Z,4.50
2018-04-08T23:12:28.788Z,3.00
2018-04-08T23:14:56.223Z,4.33
2018-04-08T23:17:23.679Z,4.13
2018-04-08T23:19:51.356Z,4.17
2018-04-08T23:22:18.817Z,4.07
2018-04-08T23:24:46.637Z,5.23
2018-04-08T23:27:14.072Z,4.57
2018-04-08T23:29:41.513Z,3.37
2018-04-08T23:32:08.949Z,3.63
2018-04-08T23:34:36.389Z,3.13
2018-04-08T23:37:04.222Z,5.17
2018-04-08T23:39:31.653Z,4.00
2018-04-08T23:41:59.110Z,4.73
2018-04-08T23:44:26.590Z,3.93
2018-04-08T23:46:54.001Z,3.83
2018-04-08T23:49:21.445Z,3.87
2018-04-08T23:51:49.174Z,4.37
2018-04-08T23:54:16.625Z,4.70
2018-04-08T23:56:44.065Z,5.27
2018-04-08T23:59:11.499Z,4.30
